sensor_id;sensor_type;location;lat;lon;timestamp;temperature;humidity
16134;DHT22;8172;45.018;5.972;2023-06-10T00:03:16;15.20;78.00
16134;DHT22;8172;45.018;5.972;2023-06-10T00:08:25;15.20;78.40
16134;DHT22;8172;45.018;5.972;2023-06-10T00:13:33;15.20;78.10
16134;DHT22;8172;45.018;5.972;2023-06-10T00:18:43;15.20;77.90
16134;DHT22;8172;45.018;5.972;2023-06-10T00:23:50;15.00;78.20
16134;DHT22;8172;45.018;5.972;2023-06-10T00:29:00;15.00;78.40
16134;DHT22;8172;45.018;5.972;2023-06-10T00:34:11;15.00;78.50
16134;DHT22;8172;45.018;5.972;2023-06-10T00:39:19;15.10;78.10
16134;DHT22;8172;45.018;5.972;2023-06-10T00:44:27;15.10;78.00
16134;DHT22;8172;45.018;5.972;2023-06-10T00:49:34;15.20;77.80
16134;DHT22;8172;45.018;5.972;2023-06-10T00:54:42;15.20;77.70
16134;DHT22;8172;45.018;5.972;2023-06-10T00:59:51;15.20;77.50
16134;DHT22;8172;45.018;5.972;2023-06-10T01:05:00;15.20;77.40
16134;DHT22;8172;45.018;5.972;2023-06-10T01:15:17;15.20;77.50
16134;DHT22;8172;45.018;5.972;2023-06-10T01:20:27;15.30;77.50
16134;DHT22;8172;45.018;5.972;2023-06-10T01:25:39;15.30;77.50
16134;DHT22;8172;45.018;5.972;2023-06-10T01:30:53;15.30;77.50
16134;DHT22;8172;45.018;5.972;2023-06-10T01:36:03;15.30;77.50
16134;DHT22;8172;45.018;5.972;2023-06-10T01:41:16;15.30;77.40
16134;DHT22;8172;45.018;5.972;2023-06-10T01:46:24;15.30;77.30
16134;DHT22;8172;45.018;5.972;2023-06-10T01:51:31;15.30;77.20
16134;DHT22;8172;45.018;5.972;2023-06-10T01:56:41;15.20;77.20
16134;DHT22;8172;45.018;5.972;2023-06-10T02:01:51;15.20;77.20
16134;DHT22;8172;45.018;5.972;2023-06-10T02:06:58;15.20;77.30
16134;DHT22;8172;45.018;5.972;2023-06-10T02:12:11;15.20;77.30
16134;DHT22;8172;45.018;5.972;2023-06-10T02:17:22;15.20;77.40
16134;DHT22;8172;45.018;5.972;2023-06-10T02:22:31;15.20;77.50
16134;DHT22;8172;45.018;5.972;2023-06-10T02:27:38;15.20;77.40
16134;DHT22;8172;45.018;5.972;2023-06-10T02:32:46;15.20;77.40
16134;DHT22;8172;45.018;5.972;2023-06-10T02:37:57;15.20;77.40
16134;DHT22;8172;45.018;5.972;2023-06-10T02:43:04;15.20;77.40
16134;DHT22;8172;45.018;5.972;2023-06-10T02:48:13;15.20;77.50
16134;DHT22;8172;45.018;5.972;2023-06-10T02:53:20;15.30;77.40
16134;DHT22;8172;45.018;5.972;2023-06-10T02:58:29;15.20;77.20
16134;DHT22;8172;45.018;5.972;2023-06-10T03:03:37;15.20;77.10
16134;DHT22;8172;45.018;5.972;2023-06-10T03:08:50;15.10;77.10
16134;DHT22;8172;45.018;5.972;2023-06-10T03:14:00;15.10;77.10
16134;DHT22;8172;45.018;5.972;2023-06-10T03:19:08;15.00;77.10
16134;DHT22;8172;45.018;5.972;2023-06-10T03:24:17;15.00;77.00
16134;DHT22;8172;45.018;5.972;2023-06-10T03:29:25;15.00;76.90
16134;DHT22;8172;45.018;5.972;2023-06-10T03:34:33;14.90;77.00
16134;DHT22;8172;45.018;5.972;2023-06-10T03:39:43;14.90;77.10
16134;DHT22;8172;45.018;5.972;2023-06-10T03:44:55;14.90;77.00
16134;DHT22;8172;45.018;5.972;2023-06-10T03:50:08;14.70;77.10
16134;DHT22;8172;45.018;5.972;2023-06-10T03:55:17;14.60;77.40
16134;DHT22;8172;45.018;5.972;2023-06-10T04:00:27;14.60;77.60
16134;DHT22;8172;45.018;5.972;2023-06-10T04:05:35;14.60;77.70
16134;DHT22;8172;45.018;5.972;2023-06-10T04:10:42;14.70;77.90
16134;DHT22;8172;45.018;5.972;2023-06-10T04:15:50;14.80;77.90
16134;DHT22;8172;45.018;5.972;2023-06-10T04:20:59;14.90;77.80
16134;DHT22;8172;45.018;5.972;2023-06-10T04:26:08;14.90;77.90
16134;DHT22;8172;45.018;5.972;2023-06-10T04:31:18;15.00;77.80
16134;DHT22;8172;45.018;5.972;2023-06-10T04:36:26;15.00;77.70
16134;DHT22;8172;45.018;5.972;2023-06-10T04:41:36;15.00;77.70
16134;DHT22;8172;45.018;5.972;2023-06-10T04:46:44;15.10;77.80
16134;DHT22;8172;45.018;5.972;2023-06-10T04:51:55;15.10;78.00
16134;DHT22;8172;45.018;5.972;2023-06-10T04:57:06;15.20;78.00
16134;DHT22;8172;45.018;5.972;2023-06-10T05:02:14;15.20;78.00
16134;DHT22;8172;45.018;5.972;2023-06-10T05:07:22;15.30;78.00
16134;DHT22;8172;45.018;5.972;2023-06-10T05:12:30;15.30;78.10
16134;DHT22;8172;45.018;5.972;2023-06-10T05:17:37;15.30;78.20
16134;DHT22;8172;45.018;5.972;2023-06-10T05:22:44;15.40;78.30
16134;DHT22;8172;45.018;5.972;2023-06-10T05:27:53;15.40;78.40
16134;DHT22;8172;45.018;5.972;2023-06-10T05:33:02;15.50;78.50
16134;DHT22;8172;45.018;5.972;2023-06-10T05:38:13;15.60;78.50
16134;DHT22;8172;45.018;5.972;2023-06-10T05:43:23;15.60;78.40
16134;DHT22;8172;45.018;5.972;2023-06-10T05:48:31;15.60;78.40
16134;DHT22;8172;45.018;5.972;2023-06-10T05:53:39;15.70;78.30
16134;DHT22;8172;45.018;5.972;2023-06-10T05:58:47;15.70;77.80
16134;DHT22;8172;45.018;5.972;2023-06-10T06:03:55;15.70;77.60
16134;DHT22;8172;45.018;5.972;2023-06-10T06:09:03;15.80;77.50
16134;DHT22;8172;45.018;5.972;2023-06-10T06:14:11;15.80;77.70
16134;DHT22;8172;45.018;5.972;2023-06-10T06:19:19;15.80;77.80
16134;DHT22;8172;45.018;5.972;2023-06-10T06:24:27;15.90;77.50
16134;DHT22;8172;45.018;5.972;2023-06-10T06:29:35;15.90;77.30
16134;DHT22;8172;45.018;5.972;2023-06-10T06:34:43;16.00;77.20
16134;DHT22;8172;45.018;5.972;2023-06-10T06:39:52;16.00;77.20
16134;DHT22;8172;45.018;5.972;2023-06-10T06:45:00;16.10;77.40
16134;DHT22;8172;45.018;5.972;2023-06-10T06:50:10;16.20;77.50
16134;DHT22;8172;45.018;5.972;2023-06-10T06:55:17;16.20;77.20
16134;DHT22;8172;45.018;5.972;2023-06-10T07:00:24;16.30;76.80
16134;DHT22;8172;45.018;5.972;2023-06-10T07:05:33;16.30;76.40
16134;DHT22;8172;45.018;5.972;2023-06-10T07:10:41;16.40;76.80
16134;DHT22;8172;45.018;5.972;2023-06-10T07:15:48;16.50;76.90
16134;DHT22;8172;45.018;5.972;2023-06-10T07:20:56;16.60;77.00
16134;DHT22;8172;45.018;5.972;2023-06-10T07:26:04;16.70;76.60
16134;DHT22;8172;45.018;5.972;2023-06-10T07:31:11;16.70;76.50
16134;DHT22;8172;45.018;5.972;2023-06-10T07:36:19;16.70;76.70
16134;DHT22;8172;45.018;5.972;2023-06-10T07:41:27;16.80;77.10
16134;DHT22;8172;45.018;5.972;2023-06-10T07:46:35;16.80;77.00
16134;DHT22;8172;45.018;5.972;2023-06-10T07:51:42;16.90;76.50
16134;DHT22;8172;45.018;5.972;2023-06-10T07:56:53;16.90;76.20
16134;DHT22;8172;45.018;5.972;2023-06-10T08:02:05;16.90;76.60
16134;DHT22;8172;45.018;5.972;2023-06-10T08:07:12;16.90;77.20
16134;DHT22;8172;45.018;5.972;2023-06-10T08:12:20;17.00;76.60
16134;DHT22;8172;45.018;5.972;2023-06-10T08:17:28;16.90;75.90
16134;DHT22;8172;45.018;5.972;2023-06-10T08:22:37;16.90;75.50
16134;DHT22;8172;45.018;5.972;2023-06-10T08:27:46;16.80;75.50
16134;DHT22;8172;45.018;5.972;2023-06-10T08:32:53;16.80;75.50
16134;DHT22;8172;45.018;5.972;2023-06-10T08:38:02;16.80;75.60
16134;DHT22;8172;45.018;5.972;2023-06-10T08:43:17;16.90;75.40
16134;DHT22;8172;45.018;5.972;2023-06-10T08:48:20;17.00;75.10
16134;DHT22;8172;45.018;5.972;2023-06-10T08:53:32;17.10;75.30
16134;DHT22;8172;45.018;5.972;2023-06-10T08:58:40;17.30;74.90
16134;DHT22;8172;45.018;5.972;2023-06-10T09:03:48;17.50;75.20
16134;DHT22;8172;45.018;5.972;2023-06-10T09:08:57;17.70;73.90
16134;DHT22;8172;45.018;5.972;2023-06-10T09:14:09;17.90;73.60
16134;DHT22;8172;45.018;5.972;2023-06-10T09:19:20;17.90;73.30
16134;DHT22;8172;45.018;5.972;2023-06-10T09:24:29;17.90;73.80
16134;DHT22;8172;45.018;5.972;2023-06-10T09:34:48;18.00;72.20
16134;DHT22;8172;45.018;5.972;2023-06-10T09:40:01;18.00;72.20
16134;DHT22;8172;45.018;5.972;2023-06-10T09:45:08;18.00;71.80
16134;DHT22;8172;45.018;5.972;2023-06-10T09:50:15;18.00;71.80
16134;DHT22;8172;45.018;5.972;2023-06-10T09:55:25;18.00;72.30
16134;DHT22;8172;45.018;5.972;2023-06-10T10:00:35;18.10;72.60
16134;DHT22;8172;45.018;5.972;2023-06-10T10:05:45;18.20;72.20
16134;DHT22;8172;45.018;5.972;2023-06-10T10:10:52;18.20;71.60
16134;DHT22;8172;45.018;5.972;2023-06-10T10:16:03;18.30;71.80
16134;DHT22;8172;45.018;5.972;2023-06-10T10:21:11;18.40;71.80
16134;DHT22;8172;45.018;5.972;2023-06-10T10:26:21;18.40;71.70
16134;DHT22;8172;45.018;5.972;2023-06-10T10:31:30;18.40;71.00
16134;DHT22;8172;45.018;5.972;2023-06-10T10:36:39;18.40;71.30
16134;DHT22;8172;45.018;5.972;2023-06-10T10:41:48;18.40;71.20
16134;DHT22;8172;45.018;5.972;2023-06-10T10:46:58;18.40;71.30
16134;DHT22;8172;45.018;5.972;2023-06-10T10:52:11;18.40;70.50
16134;DHT22;8172;45.018;5.972;2023-06-10T11:07:37;18.60;70.20
16134;DHT22;8172;45.018;5.972;2023-06-10T11:23:04;19.00;69.70
16134;DHT22;8172;45.018;5.972;2023-06-10T11:33:25;19.20;70.40
16134;DHT22;8172;45.018;5.972;2023-06-10T11:38:38;19.30;70.90
16134;DHT22;8172;45.018;5.972;2023-06-10T11:43:49;19.40;71.00
16134;DHT22;8172;45.018;5.972;2023-06-10T11:48:59;19.60;71.00
16134;DHT22;8172;45.018;5.972;2023-06-10T11:54:09;19.80;70.80
16134;DHT22;8172;45.018;5.972;2023-06-10T11:59:16;20.00;70.10
16134;DHT22;8172;45.018;5.972;2023-06-10T12:04:26;20.10;69.90
16134;DHT22;8172;45.018;5.972;2023-06-10T12:09:36;20.10;68.20
16134;DHT22;8172;45.018;5.972;2023-06-10T12:19:54;20.30;68.90
16134;DHT22;8172;45.018;5.972;2023-06-10T12:25:04;20.40;69.30
16134;DHT22;8172;45.018;5.972;2023-06-10T12:30:18;20.50;69.20
16134;DHT22;8172;45.018;5.972;2023-06-10T12:35:26;20.70;68.70
16134;DHT22;8172;45.018;5.972;2023-06-10T12:40:38;20.80;68.30
16134;DHT22;8172;45.018;5.972;2023-06-10T12:45:49;20.90;66.80
16134;DHT22;8172;45.018;5.972;2023-06-10T12:50:58;20.80;66.50
16134;DHT22;8172;45.018;5.972;2023-06-10T12:56:08;20.70;65.90
16134;DHT22;8172;45.018;5.972;2023-06-10T13:01:15;20.70;67.10
16134;DHT22;8172;45.018;5.972;2023-06-10T13:06:25;20.70;67.00
16134;DHT22;8172;45.018;5.972;2023-06-10T13:11:35;20.80;66.30
16134;DHT22;8172;45.018;5.972;2023-06-10T13:16:44;20.80;65.60
16134;DHT22;8172;45.018;5.972;2023-06-10T13:21:53;20.80;65.80
16134;DHT22;8172;45.018;5.972;2023-06-10T13:27:00;20.70;66.20
16134;DHT22;8172;45.018;5.972;2023-06-10T13:32:08;20.60;66.00
16134;DHT22;8172;45.018;5.972;2023-06-10T13:37:18;20.50;66.40
16134;DHT22;8172;45.018;5.972;2023-06-10T13:42:31;20.50;66.80
16134;DHT22;8172;45.018;5.972;2023-06-10T13:47:43;20.50;66.70
16134;DHT22;8172;45.018;5.972;2023-06-10T13:52:54;20.60;66.10
16134;DHT22;8172;45.018;5.972;2023-06-10T13:58:02;20.50;65.90
16134;DHT22;8172;45.018;5.972;2023-06-10T14:03:10;20.40;65.80
16134;DHT22;8172;45.018;5.972;2023-06-10T14:08:18;20.20;66.40
16134;DHT22;8172;45.018;5.972;2023-06-10T14:13:26;19.90;66.60
16134;DHT22;8172;45.018;5.972;2023-06-10T14:18:34;19.70;66.40
16134;DHT22;8172;45.018;5.972;2023-06-10T14:23:41;19.50;66.20
16134;DHT22;8172;45.018;5.972;2023-06-10T14:28:50;19.30;67.20
16134;DHT22;8172;45.018;5.972;2023-06-10T14:33:57;19.20;67.80
16134;DHT22;8172;45.018;5.972;2023-06-10T14:39:05;19.20;68.10
16134;DHT22;8172;45.018;5.972;2023-06-10T14:44:12;19.20;68.20
16134;DHT22;8172;45.018;5.972;2023-06-10T14:49:19;19.20;68.20
16134;DHT22;8172;45.018;5.972;2023-06-10T14:54:27;19.20;69.00
16134;DHT22;8172;45.018;5.972;2023-06-10T14:59:34;19.10;69.80
16134;DHT22;8172;45.018;5.972;2023-06-10T15:04:42;19.10;71.20
16134;DHT22;8172;45.018;5.972;2023-06-10T15:09:49;19.00;71.20
16134;DHT22;8172;45.018;5.972;2023-06-10T15:14:56;19.00;71.00
16134;DHT22;8172;45.018;5.972;2023-06-10T15:20:04;18.80;71.00
16134;DHT22;8172;45.018;5.972;2023-06-10T15:25:12;18.80;71.50
16134;DHT22;8172;45.018;5.972;2023-06-10T15:30:21;18.70;70.90
16134;DHT22;8172;45.018;5.972;2023-06-10T15:35:28;18.70;69.80
16134;DHT22;8172;45.018;5.972;2023-06-10T15:40:35;18.60;69.40
16134;DHT22;8172;45.018;5.972;2023-06-10T15:45:42;18.50;70.20
16134;DHT22;8172;45.018;5.972;2023-06-10T15:50:49;18.40;70.10
16134;DHT22;8172;45.018;5.972;2023-06-10T15:55:56;18.30;70.00
16134;DHT22;8172;45.018;5.972;2023-06-10T16:01:04;18.30;70.30
16134;DHT22;8172;45.018;5.972;2023-06-10T16:06:15;18.30;70.40
16134;DHT22;8172;45.018;5.972;2023-06-10T16:11:27;18.30;70.60
16134;DHT22;8172;45.018;5.972;2023-06-10T16:16:34;18.30;71.10
16134;DHT22;8172;45.018;5.972;2023-06-10T16:21:42;18.30;71.30
16134;DHT22;8172;45.018;5.972;2023-06-10T16:26:49;18.40;71.30
16134;DHT22;8172;45.018;5.972;2023-06-10T16:31:57;18.40;71.60
16134;DHT22;8172;45.018;5.972;2023-06-10T16:37:05;18.40;72.00
16134;DHT22;8172;45.018;5.972;2023-06-10T16:42:13;18.40;72.50
16134;DHT22;8172;45.018;5.972;2023-06-10T16:47:20;18.50;72.70
16134;DHT22;8172;45.018;5.972;2023-06-10T16:52:28;18.50;72.80
16134;DHT22;8172;45.018;5.972;2023-06-10T16:57:39;18.60;72.60
16134;DHT22;8172;45.018;5.972;2023-06-10T17:02:47;18.60;72.80
16134;DHT22;8172;45.018;5.972;2023-06-10T17:07:54;18.60;71.90
16134;DHT22;8172;45.018;5.972;2023-06-10T17:13:01;18.60;72.00
16134;DHT22;8172;45.018;5.972;2023-06-10T17:18:09;18.60;72.30
16134;DHT22;8172;45.018;5.972;2023-06-10T17:23:16;18.60;72.20
16134;DHT22;8172;45.018;5.972;2023-06-10T17:28:23;18.70;72.40
16134;DHT22;8172;45.018;5.972;2023-06-10T17:33:30;18.70;72.50
16134;DHT22;8172;45.018;5.972;2023-06-10T17:38:38;18.80;73.10
16134;DHT22;8172;45.018;5.972;2023-06-10T17:43:45;18.90;73.10
16134;DHT22;8172;45.018;5.972;2023-06-10T17:48:52;18.80;73.20
16134;DHT22;8172;45.018;5.972;2023-06-10T17:54:00;18.80;73.30
16134;DHT22;8172;45.018;5.972;2023-06-10T17:59:08;18.80;73.50
16134;DHT22;8172;45.018;5.972;2023-06-10T18:04:16;18.80;73.30
16134;DHT22;8172;45.018;5.972;2023-06-10T18:09:24;18.80;73.40
16134;DHT22;8172;45.018;5.972;2023-06-10T18:14:37;18.70;73.50
16134;DHT22;8172;45.018;5.972;2023-06-10T18:19:47;18.70;73.80
16134;DHT22;8172;45.018;5.972;2023-06-10T18:25:23;18.60;73.30
16134;DHT22;8172;45.018;5.972;2023-06-10T18:30:35;18.50;73.30
16134;DHT22;8172;45.018;5.972;2023-06-10T18:35:54;18.40;73.60
16134;DHT22;8172;45.018;5.972;2023-06-10T18:41:09;18.30;73.40
16134;DHT22;8172;45.018;5.972;2023-06-10T18:46:32;18.30;73.70
16134;DHT22;8172;45.018;5.972;2023-06-10T18:52:05;18.20;73.50
16134;DHT22;8172;45.018;5.972;2023-06-10T18:57:42;18.10;73.60
16134;DHT22;8172;45.018;5.972;2023-06-10T19:03:05;18.00;73.90
16134;DHT22;8172;45.018;5.972;2023-06-10T19:08:35;17.90;73.90
16134;DHT22;8172;45.018;5.972;2023-06-10T19:14:08;17.80;73.90
16134;DHT22;8172;45.018;5.972;2023-06-10T19:19:44;17.70;73.70
16134;DHT22;8172;45.018;5.972;2023-06-10T19:30:47;17.60;73.70
16134;DHT22;8172;45.018;5.972;2023-06-10T19:42:28;17.50;73.70
16134;DHT22;8172;45.018;5.972;2023-06-10T19:48:06;17.40;73.80
16134;DHT22;8172;45.018;5.972;2023-06-10T19:53:29;17.40;73.70
16134;DHT22;8172;45.018;5.972;2023-06-10T19:59:00;17.30;73.70
16134;DHT22;8172;45.018;5.972;2023-06-10T20:04:32;17.20;73.70
16134;DHT22;8172;45.018;5.972;2023-06-10T20:10:09;17.20;73.80
16134;DHT22;8172;45.018;5.972;2023-06-10T20:15:26;17.10;74.00
16134;DHT22;8172;45.018;5.972;2023-06-10T20:20:35;17.10;74.10
16134;DHT22;8172;45.018;5.972;2023-06-10T20:25:42;17.10;74.20
16134;DHT22;8172;45.018;5.972;2023-06-10T20:30:49;17.10;74.30
16134;DHT22;8172;45.018;5.972;2023-06-10T20:36:00;17.00;74.30
16134;DHT22;8172;45.018;5.972;2023-06-10T20:41:10;17.00;74.30
16134;DHT22;8172;45.018;5.972;2023-06-10T20:46:17;17.00;74.40
16134;DHT22;8172;45.018;5.972;2023-06-10T20:51:25;17.00;74.40
16134;DHT22;8172;45.018;5.972;2023-06-10T20:56:33;16.90;74.00
16134;DHT22;8172;45.018;5.972;2023-06-10T21:01:40;16.80;74.10
16134;DHT22;8172;45.018;5.972;2023-06-10T21:06:49;16.80;74.30
16134;DHT22;8172;45.018;5.972;2023-06-10T21:11:56;16.70;74.30
16134;DHT22;8172;45.018;5.972;2023-06-10T21:17:04;16.70;74.30
16134;DHT22;8172;45.018;5.972;2023-06-10T21:22:13;16.70;74.40
16134;DHT22;8172;45.018;5.972;2023-06-10T21:27:23;16.70;74.40
16134;DHT22;8172;45.018;5.972;2023-06-10T21:32:35;16.70;74.20
16134;DHT22;8172;45.018;5.972;2023-06-10T21:37:51;16.60;74.40
16134;DHT22;8172;45.018;5.972;2023-06-10T21:43:16;16.50;74.40
16134;DHT22;8172;45.018;5.972;2023-06-10T21:48:28;16.50;74.60
16134;DHT22;8172;45.018;5.972;2023-06-10T21:53:57;16.50;74.60
16134;DHT22;8172;45.018;5.972;2023-06-10T21:59:45;16.50;74.30
16134;DHT22;8172;45.018;5.972;2023-06-10T22:05:20;16.40;74.60
16134;DHT22;8172;45.018;5.972;2023-06-10T22:10:53;16.40;74.60
16134;DHT22;8172;45.018;5.972;2023-06-10T22:16:18;16.40;74.50
16134;DHT22;8172;45.018;5.972;2023-06-10T22:21:49;16.40;74.60
16134;DHT22;8172;45.018;5.972;2023-06-10T22:27:26;16.40;74.70
16134;DHT22;8172;45.018;5.972;2023-06-10T22:32:48;16.40;74.80
16134;DHT22;8172;45.018;5.972;2023-06-10T22:38:13;16.40;74.90
16134;DHT22;8172;45.018;5.972;2023-06-10T22:43:26;16.40;74.90
16134;DHT22;8172;45.018;5.972;2023-06-10T22:48:42;16.40;74.90
16134;DHT22;8172;45.018;5.972;2023-06-10T22:53:50;16.40;75.00
16134;DHT22;8172;45.018;5.972;2023-06-10T22:58:57;16.50;74.90
16134;DHT22;8172;45.018;5.972;2023-06-10T23:04:07;16.50;74.90
16134;DHT22;8172;45.018;5.972;2023-06-10T23:09:14;16.50;74.90
16134;DHT22;8172;45.018;5.972;2023-06-10T23:14:22;16.50;74.90
16134;DHT22;8172;45.018;5.972;2023-06-10T23:19:29;16.40;75.00
16134;DHT22;8172;45.018;5.972;2023-06-10T23:24:39;16.40;74.90
16134;DHT22;8172;45.018;5.972;2023-06-10T23:29:47;16.40;74.80
16134;DHT22;8172;45.018;5.972;2023-06-10T23:34:57;16.40;74.80
16134;DHT22;8172;45.018;5.972;2023-06-10T23:40:05;16.30;74.90
16134;DHT22;8172;45.018;5.972;2023-06-10T23:45:14;16.30;74.90
16134;DHT22;8172;45.018;5.972;2023-06-10T23:50:21;16.30;75.00
16134;DHT22;8172;45.018;5.972;2023-06-10T23:55:29;16.30;75.20
